sensor_id;sensor_type;location;lat;lon;timestamp;temperature;humidity
13123;DHT22;6627;50.920;12.050;2022-08-11T00:01:18;13.90;99.90
13123;DHT22;6627;50.920;12.050;2022-08-11T00:03:57;13.80;99.90
13123;DHT22;6627;50.920;12.050;2022-08-11T00:06:30;13.60;99.90
13123;DHT22;6627;50.920;12.050;2022-08-11T00:09:03;13.60;99.90
13123;DHT22;6627;50.920;12.050;2022-08-11T00:11:34;13.60;99.90
13123;DHT22;6627;50.920;12.050;2022-08-11T00:14:16;13.50;99.90
13123;DHT22;6627;50.920;12.050;2022-08-11T00:16:55;13.60;99.90
13123;DHT22;6627;50.920;12.050;2022-08-11T00:19:27;13.60;99.90
13123;DHT22;6627;50.920;12.050;2022-08-11T00:21:58;13.60;99.90
13123;DHT22;6627;50.920;12.050;2022-08-11T00:24:31;13.60;99.90
13123;DHT22;6627;50.920;12.050;2022-08-11T00:27:03;13.80;99.90
13123;DHT22;6627;50.920;12.050;2022-08-11T00:29:33;14.00;99.90
13123;DHT22;6627;50.920;12.050;2022-08-11T00:32:03;13.90;99.90
13123;DHT22;6627;50.920;12.050;2022-08-11T00:34:36;14.00;99.90
13123;DHT22;6627;50.920;12.050;2022-08-11T00:37:15;14.40;99.90
13123;DHT22;6627;50.920;12.050;2022-08-11T00:39:50;14.60;99.90
13123;DHT22;6627;50.920;12.050;2022-08-11T00:42:31;14.70;99.90
13123;DHT22;6627;50.920;12.050;2022-08-11T00:45:17;14.30;99.90
13123;DHT22;6627;50.920;12.050;2022-08-11T00:48:04;14.10;99.90
13123;DHT22;6627;50.920;12.050;2022-08-11T00:50:48;14.30;99.90
13123;DHT22;6627;50.920;12.050;2022-08-11T00:53:36;14.00;99.90
13123;DHT22;6627;50.920;12.050;2022-08-11T00:56:45;13.70;99.90
13123;DHT22;6627;50.920;12.050;2022-08-11T01:00:14;13.60;99.90
13123;DHT22;6627;50.920;12.050;2022-08-11T01:03:03;13.60;99.90
13123;DHT22;6627;50.920;12.050;2022-08-11T01:06:05;13.60;99.90
13123;DHT22;6627;50.920;12.050;2022-08-11T01:09:27;13.60;99.90
13123;DHT22;6627;50.920;12.050;2022-08-11T01:12:25;14.00;99.90
13123;DHT22;6627;50.920;12.050;2022-08-11T01:15:32;14.20;99.90
13123;DHT22;6627;50.920;12.050;2022-08-11T01:19:09;13.70;99.90
13123;DHT22;6627;50.920;12.050;2022-08-11T01:22:20;13.40;99.90
13123;DHT22;6627;50.920;12.050;2022-08-11T01:25:41;13.30;99.90
13123;DHT22;6627;50.920;12.050;2022-08-11T01:35:23;13.90;99.90
13123;DHT22;6627;50.920;12.050;2022-08-11T01:42:04;13.60;99.90
13123;DHT22;6627;50.920;12.050;2022-08-11T01:45:35;13.20;99.90
13123;DHT22;6627;50.920;12.050;2022-08-11T01:48:37;12.90;99.90
13123;DHT22;6627;50.920;12.050;2022-08-11T01:51:43;13.10;99.90
13123;DHT22;6627;50.920;12.050;2022-08-11T01:54:29;13.00;99.90
13123;DHT22;6627;50.920;12.050;2022-08-11T01:57:11;12.90;99.90
13123;DHT22;6627;50.920;12.050;2022-08-11T01:59:48;12.80;99.90
13123;DHT22;6627;50.920;12.050;2022-08-11T02:02:30;12.70;99.90
13123;DHT22;6627;50.920;12.050;2022-08-11T02:05:28;12.60;99.90
13123;DHT22;6627;50.920;12.050;2022-08-11T02:08:13;12.60;99.90
13123;DHT22;6627;50.920;12.050;2022-08-11T02:10:57;12.50;99.90
13123;DHT22;6627;50.920;12.050;2022-08-11T02:13:58;12.40;99.90
13123;DHT22;6627;50.920;12.050;2022-08-11T02:16:43;12.50;99.90
13123;DHT22;6627;50.920;12.050;2022-08-11T02:19:23;12.60;99.90
13123;DHT22;6627;50.920;12.050;2022-08-11T02:22:23;12.50;99.90
13123;DHT22;6627;50.920;12.050;2022-08-11T02:25:34;12.30;99.90
13123;DHT22;6627;50.920;12.050;2022-08-11T02:28:06;12.20;99.90
13123;DHT22;6627;50.920;12.050;2022-08-11T02:30:45;12.10;99.90
13123;DHT22;6627;50.920;12.050;2022-08-11T02:33:41;12.10;99.90
13123;DHT22;6627;50.920;12.050;2022-08-11T02:36:13;12.10;99.90
13123;DHT22;6627;50.920;12.050;2022-08-11T02:38:49;12.10;99.90
13123;DHT22;6627;50.920;12.050;2022-08-11T02:41:35;12.10;99.90
13123;DHT22;6627;50.920;12.050;2022-08-11T02:44:31;12.10;99.90
13123;DHT22;6627;50.920;12.050;2022-08-11T02:47:17;12.20;99.90
13123;DHT22;6627;50.920;12.050;2022-08-11T02:50:03;12.20;99.90
13123;DHT22;6627;50.920;12.050;2022-08-11T02:52:44;12.10;99.90
13123;DHT22;6627;50.920;12.050;2022-08-11T02:55:24;12.10;99.90
13123;DHT22;6627;50.920;12.050;2022-08-11T02:58:02;12.10;99.90
13123;DHT22;6627;50.920;12.050;2022-08-11T03:00:46;12.30;99.90
13123;DHT22;6627;50.920;12.050;2022-08-11T03:03:22;12.40;99.90
13123;DHT22;6627;50.920;12.050;2022-08-11T03:06:04;12.50;99.90
13123;DHT22;6627;50.920;12.050;2022-08-11T03:08:44;12.60;99.90
13123;DHT22;6627;50.920;12.050;2022-08-11T03:11:24;12.70;99.90
13123;DHT22;6627;50.920;12.050;2022-08-11T03:14:30;12.90;99.90
13123;DHT22;6627;50.920;12.050;2022-08-11T03:17:30;13.10;99.90
13123;DHT22;6627;50.920;12.050;2022-08-11T03:20:10;13.30;99.90
13123;DHT22;6627;50.920;12.050;2022-08-11T03:22:52;13.50;99.90
13123;DHT22;6627;50.920;12.050;2022-08-11T03:25:31;13.60;99.90
13123;DHT22;6627;50.920;12.050;2022-08-11T03:28:17;13.60;99.90
13123;DHT22;6627;50.920;12.050;2022-08-11T03:31:00;13.60;99.90
13123;DHT22;6627;50.920;12.050;2022-08-11T03:33:40;13.60;99.90
13123;DHT22;6627;50.920;12.050;2022-08-11T03:36:57;13.40;99.90
13123;DHT22;6627;50.920;12.050;2022-08-11T03:39:44;13.20;99.90
13123;DHT22;6627;50.920;12.050;2022-08-11T03:42:21;13.20;99.90
13123;DHT22;6627;50.920;12.050;2022-08-11T03:45:18;13.20;99.90
13123;DHT22;6627;50.920;12.050;2022-08-11T03:48:02;12.70;99.90
13123;DHT22;6627;50.920;12.050;2022-08-11T03:50:46;12.60;99.90
13123;DHT22;6627;50.920;12.050;2022-08-11T03:53:47;13.00;99.90
13123;DHT22;6627;50.920;12.050;2022-08-11T03:56:53;13.30;99.90
13123;DHT22;6627;50.920;12.050;2022-08-11T04:00:04;13.40;99.90
13123;DHT22;6627;50.920;12.050;2022-08-11T04:03:00;13.00;99.90
13123;DHT22;6627;50.920;12.050;2022-08-11T04:10:13;13.00;99.90
13123;DHT22;6627;50.920;12.050;2022-08-11T04:13:39;12.60;99.90
13123;DHT22;6627;50.920;12.050;2022-08-11T04:17:06;12.30;99.90
13123;DHT22;6627;50.920;12.050;2022-08-11T04:20:15;12.40;99.90
13123;DHT22;6627;50.920;12.050;2022-08-11T04:23:01;12.80;99.90
13123;DHT22;6627;50.920;12.050;2022-08-11T04:26:00;13.00;99.90
13123;DHT22;6627;50.920;12.050;2022-08-11T04:29:02;12.50;99.90
13123;DHT22;6627;50.920;12.050;2022-08-11T04:31:37;12.90;99.90
13123;DHT22;6627;50.920;12.050;2022-08-11T04:34:52;13.10;99.90
13123;DHT22;6627;50.920;12.050;2022-08-11T04:38:08;13.30;99.90
13123;DHT22;6627;50.920;12.050;2022-08-11T04:41:08;13.40;99.90
13123;DHT22;6627;50.920;12.050;2022-08-11T04:44:17;13.50;99.90
13123;DHT22;6627;50.920;12.050;2022-08-11T04:47:12;13.50;99.90
13123;DHT22;6627;50.920;12.050;2022-08-11T04:50:20;13.60;99.90
13123;DHT22;6627;50.920;12.050;2022-08-11T04:53:27;13.60;99.90
13123;DHT22;6627;50.920;12.050;2022-08-11T04:56:27;13.60;99.90
13123;DHT22;6627;50.920;12.050;2022-08-11T04:59:30;13.70;99.90
13123;DHT22;6627;50.920;12.050;2022-08-11T05:02:50;13.70;99.90
13123;DHT22;6627;50.920;12.050;2022-08-11T05:06:00;13.80;99.90
13123;DHT22;6627;50.920;12.050;2022-08-11T05:12:40;13.90;99.90
13123;DHT22;6627;50.920;12.050;2022-08-11T05:15:12;14.00;99.90
13123;DHT22;6627;50.920;12.050;2022-08-11T05:18:08;14.00;99.90
13123;DHT22;6627;50.920;12.050;2022-08-11T05:21:03;14.00;99.90
13123;DHT22;6627;50.920;12.050;2022-08-11T05:23:56;14.00;99.90
13123;DHT22;6627;50.920;12.050;2022-08-11T05:26:49;14.10;99.90
13123;DHT22;6627;50.920;12.050;2022-08-11T05:29:40;14.20;99.90
13123;DHT22;6627;50.920;12.050;2022-08-11T05:32:37;14.30;99.90
13123;DHT22;6627;50.920;12.050;2022-08-11T05:35:26;14.30;99.90
13123;DHT22;6627;50.920;12.050;2022-08-11T05:37:59;14.30;99.90
13123;DHT22;6627;50.920;12.050;2022-08-11T05:40:47;14.40;99.90
13123;DHT22;6627;50.920;12.050;2022-08-11T05:43:39;14.50;99.90
13123;DHT22;6627;50.920;12.050;2022-08-11T05:46:27;14.60;99.90
13123;DHT22;6627;50.920;12.050;2022-08-11T05:49:14;14.70;99.90
13123;DHT22;6627;50.920;12.050;2022-08-11T05:51:59;14.80;99.90
13123;DHT22;6627;50.920;12.050;2022-08-11T05:54:50;14.90;99.90
13123;DHT22;6627;50.920;12.050;2022-08-11T05:57:36;14.90;99.90
13123;DHT22;6627;50.920;12.050;2022-08-11T06:00:07;15.10;99.90
13123;DHT22;6627;50.920;12.050;2022-08-11T06:02:40;15.10;99.90
13123;DHT22;6627;50.920;12.050;2022-08-11T06:05:09;15.20;99.90
13123;DHT22;6627;50.920;12.050;2022-08-11T06:07:39;15.30;99.90
13123;DHT22;6627;50.920;12.050;2022-08-11T06:10:09;15.40;99.90
13123;DHT22;6627;50.920;12.050;2022-08-11T06:12:38;15.50;99.90
13123;DHT22;6627;50.920;12.050;2022-08-11T06:15:10;15.40;99.90
13123;DHT22;6627;50.920;12.050;2022-08-11T06:17:44;15.50;99.90
13123;DHT22;6627;50.920;12.050;2022-08-11T06:20:14;15.60;99.90
13123;DHT22;6627;50.920;12.050;2022-08-11T06:22:46;15.60;99.90
13123;DHT22;6627;50.920;12.050;2022-08-11T06:25:22;15.80;99.90
13123;DHT22;6627;50.920;12.050;2022-08-11T06:27:57;15.90;99.90
13123;DHT22;6627;50.920;12.050;2022-08-11T06:30:36;16.10;99.90
13123;DHT22;6627;50.920;12.050;2022-08-11T06:33:08;16.20;99.90
13123;DHT22;6627;50.920;12.050;2022-08-11T06:35:46;16.40;99.90
13123;DHT22;6627;50.920;12.050;2022-08-11T06:38:35;16.50;99.90
13123;DHT22;6627;50.920;12.050;2022-08-11T06:41:17;16.60;99.90
13123;DHT22;6627;50.920;12.050;2022-08-11T06:46:51;16.90;99.90
13123;DHT22;6627;50.920;12.050;2022-08-11T06:49:31;17.10;99.90
13123;DHT22;6627;50.920;12.050;2022-08-11T06:52:18;17.30;99.90
13123;DHT22;6627;50.920;12.050;2022-08-11T06:54:54;17.50;99.90
13123;DHT22;6627;50.920;12.050;2022-08-11T06:57:32;17.70;99.90
13123;DHT22;6627;50.920;12.050;2022-08-11T07:00:19;17.90;99.90
13123;DHT22;6627;50.920;12.050;2022-08-11T07:03:02;18.00;99.90
13123;DHT22;6627;50.920;12.050;2022-08-11T07:05:40;18.20;99.90
13123;DHT22;6627;50.920;12.050;2022-08-11T07:08:36;18.40;99.90
13123;DHT22;6627;50.920;12.050;2022-08-11T07:15:31;18.80;99.90
13123;DHT22;6627;50.920;12.050;2022-08-11T07:18:15;19.10;99.90
13123;DHT22;6627;50.920;12.050;2022-08-11T07:21:21;19.40;99.90
13123;DHT22;6627;50.920;12.050;2022-08-11T07:24:13;19.70;99.90
13123;DHT22;6627;50.920;12.050;2022-08-11T07:27:05;20.00;99.90
13123;DHT22;6627;50.920;12.050;2022-08-11T07:29:55;20.40;99.90
13123;DHT22;6627;50.920;12.050;2022-08-11T07:32:28;20.90;99.90
13123;DHT22;6627;50.920;12.050;2022-08-11T07:35:03;21.10;99.90
13123;DHT22;6627;50.920;12.050;2022-08-11T07:37:40;21.50;99.90
13123;DHT22;6627;50.920;12.050;2022-08-11T07:40:10;21.80;99.90
13123;DHT22;6627;50.920;12.050;2022-08-11T07:42:38;21.90;99.90
13123;DHT22;6627;50.920;12.050;2022-08-11T07:45:12;22.20;99.90
13123;DHT22;6627;50.920;12.050;2022-08-11T07:48:04;22.60;99.90
13123;DHT22;6627;50.920;12.050;2022-08-11T07:50:51;23.60;99.90
13123;DHT22;6627;50.920;12.050;2022-08-11T07:53:38;23.90;98.00
13123;DHT22;6627;50.920;12.050;2022-08-11T07:56:06;23.70;95.60
13123;DHT22;6627;50.920;12.050;2022-08-11T07:58:35;24.00;94.70
13123;DHT22;6627;50.920;12.050;2022-08-11T08:01:22;23.90;95.60
13123;DHT22;6627;50.920;12.050;2022-08-11T08:04:13;23.70;94.70
13123;DHT22;6627;50.920;12.050;2022-08-11T08:07:00;23.60;94.70
13123;DHT22;6627;50.920;12.050;2022-08-11T08:09:47;24.00;95.20
13123;DHT22;6627;50.920;12.050;2022-08-11T08:12:34;24.60;92.10
13123;DHT22;6627;50.920;12.050;2022-08-11T08:15:20;25.00;91.60
13123;DHT22;6627;50.920;12.050;2022-08-11T08:18:07;24.80;91.60
13123;DHT22;6627;50.920;12.050;2022-08-11T08:20:41;25.20;88.10
13123;DHT22;6627;50.920;12.050;2022-08-11T08:23:11;26.00;83.90
13123;DHT22;6627;50.920;12.050;2022-08-11T08:25:42;26.30;80.00
13123;DHT22;6627;50.920;12.050;2022-08-11T08:28:14;26.00;77.40
13123;DHT22;6627;50.920;12.050;2022-08-11T08:30:44;26.10;77.90
13123;DHT22;6627;50.920;12.050;2022-08-11T08:33:19;26.10;75.40
13123;DHT22;6627;50.920;12.050;2022-08-11T08:35:51;26.10;73.80
13123;DHT22;6627;50.920;12.050;2022-08-11T08:38:37;25.90;72.90
13123;DHT22;6627;50.920;12.050;2022-08-11T08:41:06;25.80;75.50
13123;DHT22;6627;50.920;12.050;2022-08-11T08:43:35;25.90;75.70
13123;DHT22;6627;50.920;12.050;2022-08-11T08:46:08;26.00;73.90
13123;DHT22;6627;50.920;12.050;2022-08-11T08:48:37;26.20;71.20
13123;DHT22;6627;50.920;12.050;2022-08-11T08:51:10;26.10;70.60
13123;DHT22;6627;50.920;12.050;2022-08-11T08:54:02;26.10;70.00
13123;DHT22;6627;50.920;12.050;2022-08-11T08:56:32;26.20;67.50
13123;DHT22;6627;50.920;12.050;2022-08-11T08:59:02;26.60;68.10
13123;DHT22;6627;50.920;12.050;2022-08-11T09:01:35;26.80;67.40
13123;DHT22;6627;50.920;12.050;2022-08-11T09:04:08;27.00;64.50
13123;DHT22;6627;50.920;12.050;2022-08-11T09:06:38;27.20;60.40
13123;DHT22;6627;50.920;12.050;2022-08-11T09:09:08;27.80;60.70
13123;DHT22;6627;50.920;12.050;2022-08-11T09:11:38;27.70;59.20
13123;DHT22;6627;50.920;12.050;2022-08-11T09:14:20;27.30;58.00
13123;DHT22;6627;50.920;12.050;2022-08-11T09:16:49;27.40;59.10
13123;DHT22;6627;50.920;12.050;2022-08-11T09:19:19;27.50;60.50
13123;DHT22;6627;50.920;12.050;2022-08-11T09:21:49;27.50;58.30
13123;DHT22;6627;50.920;12.050;2022-08-11T09:24:38;27.60;57.80
13123;DHT22;6627;50.920;12.050;2022-08-11T09:27:25;27.50;56.80
13123;DHT22;6627;50.920;12.050;2022-08-11T09:29:53;27.50;56.30
13123;DHT22;6627;50.920;12.050;2022-08-11T09:32:22;27.30;54.30
13123;DHT22;6627;50.920;12.050;2022-08-11T09:34:51;27.40;55.70
13123;DHT22;6627;50.920;12.050;2022-08-11T09:37:22;27.50;55.00
13123;DHT22;6627;50.920;12.050;2022-08-11T09:40:09;27.60;56.20
13123;DHT22;6627;50.920;12.050;2022-08-11T09:43:00;27.70;55.20
13123;DHT22;6627;50.920;12.050;2022-08-11T09:45:48;27.80;53.20
13123;DHT22;6627;50.920;12.050;2022-08-11T09:48:18;27.70;54.40
13123;DHT22;6627;50.920;12.050;2022-08-11T09:50:48;27.70;53.70
13123;DHT22;6627;50.920;12.050;2022-08-11T09:53:20;27.80;55.30
13123;DHT22;6627;50.920;12.050;2022-08-11T09:55:50;27.60;54.50
13123;DHT22;6627;50.920;12.050;2022-08-11T09:58:18;27.70;52.30
13123;DHT22;6627;50.920;12.050;2022-08-11T10:00:49;27.80;52.40
13123;DHT22;6627;50.920;12.050;2022-08-11T10:03:23;27.80;51.00
13123;DHT22;6627;50.920;12.050;2022-08-11T10:05:53;27.70;51.80
13123;DHT22;6627;50.920;12.050;2022-08-11T10:08:43;27.90;51.80
13123;DHT22;6627;50.920;12.050;2022-08-11T10:11:15;27.80;50.80
13123;DHT22;6627;50.920;12.050;2022-08-11T10:13:48;27.70;50.90
13123;DHT22;6627;50.920;12.050;2022-08-11T10:16:39;27.80;50.80
13123;DHT22;6627;50.920;12.050;2022-08-11T10:19:08;27.80;50.50
13123;DHT22;6627;50.920;12.050;2022-08-11T10:21:40;27.70;50.10
13123;DHT22;6627;50.920;12.050;2022-08-11T10:24:32;27.70;51.40
13123;DHT22;6627;50.920;12.050;2022-08-11T10:27:18;27.90;49.80
13123;DHT22;6627;50.920;12.050;2022-08-11T10:29:46;27.90;49.60
13123;DHT22;6627;50.920;12.050;2022-08-11T10:32:32;28.00;51.20
13123;DHT22;6627;50.920;12.050;2022-08-11T10:35:19;27.90;51.90
13123;DHT22;6627;50.920;12.050;2022-08-11T10:37:52;27.80;49.70
13123;DHT22;6627;50.920;12.050;2022-08-11T10:40:22;27.80;49.70
13123;DHT22;6627;50.920;12.050;2022-08-11T10:42:54;27.90;50.40
13123;DHT22;6627;50.920;12.050;2022-08-11T10:45:32;28.10;49.80
13123;DHT22;6627;50.920;12.050;2022-08-11T10:50:49;27.90;47.70
13123;DHT22;6627;50.920;12.050;2022-08-11T10:53:36;27.90;48.40
13123;DHT22;6627;50.920;12.050;2022-08-11T10:56:27;28.30;51.20
13123;DHT22;6627;50.920;12.050;2022-08-11T10:59:13;28.20;48.20
13123;DHT22;6627;50.920;12.050;2022-08-11T11:01:43;28.20;48.30
13123;DHT22;6627;50.920;12.050;2022-08-11T11:04:13;28.20;47.10
13123;DHT22;6627;50.920;12.050;2022-08-11T11:06:49;28.20;48.80
13123;DHT22;6627;50.920;12.050;2022-08-11T11:09:24;28.40;50.90
13123;DHT22;6627;50.920;12.050;2022-08-11T11:12:02;28.40;48.80
13123;DHT22;6627;50.920;12.050;2022-08-11T11:14:53;28.00;48.70
13123;DHT22;6627;50.920;12.050;2022-08-11T11:17:44;28.50;50.90
13123;DHT22;6627;50.920;12.050;2022-08-11T11:20:29;28.20;48.20
13123;DHT22;6627;50.920;12.050;2022-08-11T11:23:07;28.10;49.90
13123;DHT22;6627;50.920;12.050;2022-08-11T11:26:10;28.00;48.70
13123;DHT22;6627;50.920;12.050;2022-08-11T11:29:23;28.30;48.00
13123;DHT22;6627;50.920;12.050;2022-08-11T11:32:21;28.40;50.50
13123;DHT22;6627;50.920;12.050;2022-08-11T11:35:12;28.60;47.10
13123;DHT22;6627;50.920;12.050;2022-08-11T11:37:54;28.70;47.60
13123;DHT22;6627;50.920;12.050;2022-08-11T11:40:23;28.70;47.90
13123;DHT22;6627;50.920;12.050;2022-08-11T11:42:53;28.70;48.90
13123;DHT22;6627;50.920;12.050;2022-08-11T11:45:24;28.40;48.60
13123;DHT22;6627;50.920;12.050;2022-08-11T11:47:54;28.30;48.20
13123;DHT22;6627;50.920;12.050;2022-08-11T11:50:24;28.00;48.50
13123;DHT22;6627;50.920;12.050;2022-08-11T11:52:56;28.20;47.40
13123;DHT22;6627;50.920;12.050;2022-08-11T11:55:27;28.30;46.30
13123;DHT22;6627;50.920;12.050;2022-08-11T11:57:56;28.60;46.60
13123;DHT22;6627;50.920;12.050;2022-08-11T12:00:45;28.80;45.40
13123;DHT22;6627;50.920;12.050;2022-08-11T12:03:31;28.70;46.10
13123;DHT22;6627;50.920;12.050;2022-08-11T12:06:00;29.00;44.70
13123;DHT22;6627;50.920;12.050;2022-08-11T12:08:29;29.20;46.00
13123;DHT22;6627;50.920;12.050;2022-08-11T12:11:00;29.20;44.10
13123;DHT22;6627;50.920;12.050;2022-08-11T12:13:48;29.10;44.40
13123;DHT22;6627;50.920;12.050;2022-08-11T12:16:20;29.10;43.30
13123;DHT22;6627;50.920;12.050;2022-08-11T12:18:50;28.90;43.00
13123;DHT22;6627;50.920;12.050;2022-08-11T12:21:20;28.90;43.20
13123;DHT22;6627;50.920;12.050;2022-08-11T12:23:49;29.00;43.90
13123;DHT22;6627;50.920;12.050;2022-08-11T12:26:35;29.00;42.80
13123;DHT22;6627;50.920;12.050;2022-08-11T12:29:22;28.80;43.00
13123;DHT22;6627;50.920;12.050;2022-08-11T12:31:54;28.90;42.10
13123;DHT22;6627;50.920;12.050;2022-08-11T12:34:25;28.70;41.00
13123;DHT22;6627;50.920;12.050;2022-08-11T12:36:57;28.70;43.40
13123;DHT22;6627;50.920;12.050;2022-08-11T12:39:33;29.00;42.70
13123;DHT22;6627;50.920;12.050;2022-08-11T12:42:22;29.10;43.70
13123;DHT22;6627;50.920;12.050;2022-08-11T12:45:11;29.10;41.70
13123;DHT22;6627;50.920;12.050;2022-08-11T12:48:04;28.90;40.30
13123;DHT22;6627;50.920;12.050;2022-08-11T12:50:55;28.90;41.60
13123;DHT22;6627;50.920;12.050;2022-08-11T12:53:51;29.10;41.90
13123;DHT22;6627;50.920;12.050;2022-08-11T12:56:21;29.00;40.50
13123;DHT22;6627;50.920;12.050;2022-08-11T12:59:08;29.00;40.40
13123;DHT22;6627;50.920;12.050;2022-08-11T13:01:54;29.20;40.90
13123;DHT22;6627;50.920;12.050;2022-08-11T13:04:41;28.80;40.90
13123;DHT22;6627;50.920;12.050;2022-08-11T13:07:25;29.20;42.90
13123;DHT22;6627;50.920;12.050;2022-08-11T13:09:55;29.40;41.40
13123;DHT22;6627;50.920;12.050;2022-08-11T13:12:23;29.50;41.00
13123;DHT22;6627;50.920;12.050;2022-08-11T13:15:10;29.30;40.30
13123;DHT22;6627;50.920;12.050;2022-08-11T13:17:41;29.30;40.70
13123;DHT22;6627;50.920;12.050;2022-08-11T13:20:11;29.30;39.60
13123;DHT22;6627;50.920;12.050;2022-08-11T13:22:41;29.20;40.70
13123;DHT22;6627;50.920;12.050;2022-08-11T13:25:11;29.20;40.30
13123;DHT22;6627;50.920;12.050;2022-08-11T13:27:41;29.30;40.70
13123;DHT22;6627;50.920;12.050;2022-08-11T13:30:11;29.40;40.50
13123;DHT22;6627;50.920;12.050;2022-08-11T13:32:58;29.30;39.90
13123;DHT22;6627;50.920;12.050;2022-08-11T13:35:29;29.50;40.70
13123;DHT22;6627;50.920;12.050;2022-08-11T13:38:00;29.30;40.00
13123;DHT22;6627;50.920;12.050;2022-08-11T13:40:30;29.40;39.30
13123;DHT22;6627;50.920;12.050;2022-08-11T13:42:59;29.20;39.90
13123;DHT22;6627;50.920;12.050;2022-08-11T13:45:27;29.50;40.20
13123;DHT22;6627;50.920;12.050;2022-08-11T13:47:56;29.40;40.10
13123;DHT22;6627;50.920;12.050;2022-08-11T13:50:25;29.50;39.90
13123;DHT22;6627;50.920;12.050;2022-08-11T13:53:16;29.80;39.30
13123;DHT22;6627;50.920;12.050;2022-08-11T13:55:48;29.50;38.90
13123;DHT22;6627;50.920;12.050;2022-08-11T13:58:16;29.40;39.40
13123;DHT22;6627;50.920;12.050;2022-08-11T14:00:48;29.30;39.00
13123;DHT22;6627;50.920;12.050;2022-08-11T14:03:20;29.30;39.00
13123;DHT22;6627;50.920;12.050;2022-08-11T14:05:52;29.30;38.90
13123;DHT22;6627;50.920;12.050;2022-08-11T14:08:27;29.70;40.20
13123;DHT22;6627;50.920;12.050;2022-08-11T14:11:01;29.40;38.90
13123;DHT22;6627;50.920;12.050;2022-08-11T14:13:50;29.50;40.70
13123;DHT22;6627;50.920;12.050;2022-08-11T14:16:23;29.70;39.30
13123;DHT22;6627;50.920;12.050;2022-08-11T14:18:57;29.80;38.50
13123;DHT22;6627;50.920;12.050;2022-08-11T14:21:30;29.50;40.30
13123;DHT22;6627;50.920;12.050;2022-08-11T14:24:21;29.40;40.10
13123;DHT22;6627;50.920;12.050;2022-08-11T14:26:50;29.70;39.20
13123;DHT22;6627;50.920;12.050;2022-08-11T14:29:21;29.50;39.50
13123;DHT22;6627;50.920;12.050;2022-08-11T14:31:54;29.70;39.20
13123;DHT22;6627;50.920;12.050;2022-08-11T14:34:25;29.50;39.00
13123;DHT22;6627;50.920;12.050;2022-08-11T14:36:56;29.50;39.30
13123;DHT22;6627;50.920;12.050;2022-08-11T14:39:28;29.60;39.30
13123;DHT22;6627;50.920;12.050;2022-08-11T14:42:07;29.60;38.40
13123;DHT22;6627;50.920;12.050;2022-08-11T14:44:57;29.50;39.00
13123;DHT22;6627;50.920;12.050;2022-08-11T14:47:47;29.30;38.20
13123;DHT22;6627;50.920;12.050;2022-08-11T14:50:19;29.40;38.90
13123;DHT22;6627;50.920;12.050;2022-08-11T14:52:50;29.50;38.80
13123;DHT22;6627;50.920;12.050;2022-08-11T14:55:24;29.40;38.80
13123;DHT22;6627;50.920;12.050;2022-08-11T14:58:16;29.30;38.50
13123;DHT22;6627;50.920;12.050;2022-08-11T15:00:44;29.50;38.60
13123;DHT22;6627;50.920;12.050;2022-08-11T15:03:14;29.50;39.40
13123;DHT22;6627;50.920;12.050;2022-08-11T15:05:45;29.70;38.60
13123;DHT22;6627;50.920;12.050;2022-08-11T15:08:16;29.70;38.10
13123;DHT22;6627;50.920;12.050;2022-08-11T15:10:47;29.60;39.00
13123;DHT22;6627;50.920;12.050;2022-08-11T15:13:16;29.40;38.40
13123;DHT22;6627;50.920;12.050;2022-08-11T15:15:45;29.50;40.30
13123;DHT22;6627;50.920;12.050;2022-08-11T15:18:31;29.30;38.90
13123;DHT22;6627;50.920;12.050;2022-08-11T15:21:00;29.40;38.60
13123;DHT22;6627;50.920;12.050;2022-08-11T15:23:44;29.50;37.80
13123;DHT22;6627;50.920;12.050;2022-08-11T15:26:34;29.20;39.20
13123;DHT22;6627;50.920;12.050;2022-08-11T15:29:24;29.30;39.40
13123;DHT22;6627;50.920;12.050;2022-08-11T15:32:13;29.30;38.50
13123;DHT22;6627;50.920;12.050;2022-08-11T15:35:02;29.40;37.70
13123;DHT22;6627;50.920;12.050;2022-08-11T15:37:54;29.30;39.00
13123;DHT22;6627;50.920;12.050;2022-08-11T15:40:27;29.20;38.20
13123;DHT22;6627;50.920;12.050;2022-08-11T15:43:20;29.00;38.80
13123;DHT22;6627;50.920;12.050;2022-08-11T15:46:14;29.20;38.40
13123;DHT22;6627;50.920;12.050;2022-08-11T15:48:47;29.30;38.60
13123;DHT22;6627;50.920;12.050;2022-08-11T15:51:29;29.20;37.90
13123;DHT22;6627;50.920;12.050;2022-08-11T15:54:04;29.20;37.80
13123;DHT22;6627;50.920;12.050;2022-08-11T15:56:36;29.30;38.70
13123;DHT22;6627;50.920;12.050;2022-08-11T15:59:10;29.10;38.60
13123;DHT22;6627;50.920;12.050;2022-08-11T16:01:59;28.90;38.70
13123;DHT22;6627;50.920;12.050;2022-08-11T16:04:45;28.80;39.90
13123;DHT22;6627;50.920;12.050;2022-08-11T16:07:15;29.10;38.50
13123;DHT22;6627;50.920;12.050;2022-08-11T16:09:53;29.20;37.90
13123;DHT22;6627;50.920;12.050;2022-08-11T16:12:25;29.10;37.30
13123;DHT22;6627;50.920;12.050;2022-08-11T16:14:59;29.00;37.60
13123;DHT22;6627;50.920;12.050;2022-08-11T16:17:49;29.00;37.40
13123;DHT22;6627;50.920;12.050;2022-08-11T16:20:22;29.00;37.40
13123;DHT22;6627;50.920;12.050;2022-08-11T16:22:55;28.90;38.00
13123;DHT22;6627;50.920;12.050;2022-08-11T16:25:25;28.80;39.10
13123;DHT22;6627;50.920;12.050;2022-08-11T16:27:56;28.80;38.10
13123;DHT22;6627;50.920;12.050;2022-08-11T16:30:28;28.80;37.50
13123;DHT22;6627;50.920;12.050;2022-08-11T16:32:58;28.90;38.80
13123;DHT22;6627;50.920;12.050;2022-08-11T16:35:33;28.80;38.00
13123;DHT22;6627;50.920;12.050;2022-08-11T16:38:20;28.50;40.00
13123;DHT22;6627;50.920;12.050;2022-08-11T16:41:04;28.60;39.00
13123;DHT22;6627;50.920;12.050;2022-08-11T16:43:38;28.70;38.00
13123;DHT22;6627;50.920;12.050;2022-08-11T16:46:26;28.60;37.90
13123;DHT22;6627;50.920;12.050;2022-08-11T16:49:16;28.50;38.70
13123;DHT22;6627;50.920;12.050;2022-08-11T16:51:46;28.50;37.90
13123;DHT22;6627;50.920;12.050;2022-08-11T16:54:14;28.30;39.00
13123;DHT22;6627;50.920;12.050;2022-08-11T16:56:44;28.20;38.00
13123;DHT22;6627;50.920;12.050;2022-08-11T16:59:16;28.10;39.30
13123;DHT22;6627;50.920;12.050;2022-08-11T17:01:51;27.90;38.30
13123;DHT22;6627;50.920;12.050;2022-08-11T17:04:30;27.90;39.20
13123;DHT22;6627;50.920;12.050;2022-08-11T17:07:23;27.80;38.90
13123;DHT22;6627;50.920;12.050;2022-08-11T17:10:17;27.90;39.10
13123;DHT22;6627;50.920;12.050;2022-08-11T17:13:05;27.90;38.70
13123;DHT22;6627;50.920;12.050;2022-08-11T17:15:37;27.90;38.70
13123;DHT22;6627;50.920;12.050;2022-08-11T17:18:29;27.80;39.10
13123;DHT22;6627;50.920;12.050;2022-08-11T17:21:11;27.70;38.90
13123;DHT22;6627;50.920;12.050;2022-08-11T17:23:46;27.70;39.50
13123;DHT22;6627;50.920;12.050;2022-08-11T17:26:21;27.30;40.00
13123;DHT22;6627;50.920;12.050;2022-08-11T17:28:54;27.40;40.20
13123;DHT22;6627;50.920;12.050;2022-08-11T17:31:26;27.20;41.10